createdAt,value
2023-08-12T00:00:22.122Z,182.33
2023-08-12T00:00:54.713Z,181.00
2023-08-12T00:01:27.350Z,180.33
2023-08-12T00:01:59.902Z,180.00
2023-08-12T00:02:32.610Z,179.33
2023-08-12T00:03:05.511Z,178.67
2023-08-12T00:03:38.163Z,178.00
2023-08-12T00:04:10.987Z,177.67
2023-08-12T00:04:43.524Z,176.67
2023-08-12T00:05:16.094Z,176.00
2023-08-12T00:05:48.639Z,175.00
2023-08-12T00:06:21.126Z,175.00
2023-08-12T00:06:54.123Z,174.33
2023-08-12T00:07:26.656Z,173.67
2023-08-12T00:07:59.196Z,173.00
2023-08-12T00:08:32.078Z,172.67
2023-08-12T00:09:05.062Z,172.00
2023-08-12T00:09:37.545Z,172.00
2023-08-12T00:10:11.701Z,172.00
2023-08-12T00:10:44.827Z,171.33
2023-08-12T00:11:17.335Z,171.00
2023-08-12T00:11:49.844Z,170.33
2023-08-12T00:12:22.332Z,170.00
2023-08-12T00:12:54.885Z,170.00
2023-08-12T00:14:08.703Z,170.00
2023-08-12T00:14:41.238Z,170.00
2023-08-12T00:15:13.867Z,170.00
2023-08-12T00:15:46.416Z,170.00
2023-08-12T00:16:19.005Z,170.00
2023-08-12T00:16:51.557Z,170.00
2023-08-12T00:17:24.089Z,170.00
2023-08-12T00:17:56.664Z,170.00
2023-08-12T00:18:29.882Z,170.00
2023-08-12T00:19:02.628Z,170.00
2023-08-12T00:19:35.122Z,170.67
2023-08-12T00:20:09.798Z,171.00
2023-08-12T00:20:43.478Z,171.00
2023-08-12T00:21:16.097Z,171.00
2023-08-12T00:21:48.654Z,171.00
2023-08-12T00:22:21.236Z,171.00
2023-08-12T00:22:53.746Z,172.00
2023-08-12T00:23:26.296Z,172.67
2023-08-12T00:23:58.857Z,173.33
2023-08-12T00:24:31.786Z,174.00
2023-08-12T00:25:04.750Z,174.00
2023-08-12T00:25:37.279Z,174.00
2023-08-12T00:26:10.183Z,174.00
2023-08-12T00:26:42.982Z,174.00
2023-08-12T00:27:15.482Z,174.00
2023-08-12T00:27:48.049Z,175.00
2023-08-12T00:28:20.578Z,175.00
2023-08-12T00:28:53.218Z,175.33
2023-08-12T00:29:25.779Z,176.00
2023-08-12T00:29:58.327Z,177.00
2023-08-12T00:30:30.866Z,179.00
2023-08-12T00:31:04.005Z,181.33
2023-08-12T00:31:36.592Z,183.33
2023-08-12T00:32:10.403Z,184.00
2023-08-12T00:32:43.032Z,185.00
2023-08-12T00:33:15.544Z,184.67
2023-08-12T00:33:48.039Z,184.00
2023-08-12T00:34:20.593Z,184.00
2023-08-12T00:34:53.145Z,184.00
2023-08-12T00:35:25.691Z,184.00
2023-08-12T00:35:58.221Z,184.00
2023-08-12T00:36:30.792Z,184.00
2023-08-12T00:37:03.333Z,183.00
2023-08-12T00:37:35.878Z,183.00
2023-08-12T00:38:08.378Z,183.00
2023-08-12T00:38:40.880Z,183.00
2023-08-12T00:39:13.567Z,182.33
2023-08-12T00:39:46.452Z,182.00
2023-08-12T00:40:18.971Z,182.00
2023-08-12T00:40:51.547Z,182.00
2023-08-12T00:41:24.110Z,182.00
2023-08-12T00:41:56.608Z,182.00
2023-08-12T00:42:29.137Z,181.67
2023-08-12T00:43:01.660Z,180.67
2023-08-12T00:43:34.201Z,179.67
2023-08-12T00:44:06.748Z,179.00
2023-08-12T00:44:39.268Z,178.33
2023-08-12T00:45:14.449Z,177.67
2023-08-12T00:45:47.030Z,177.00
2023-08-12T00:46:19.623Z,176.33
2023-08-12T00:46:52.411Z,176.00
2023-08-12T00:47:25.267Z,175.00
2023-08-12T00:47:58.434Z,175.00
2023-08-12T00:48:31.052Z,174.67
2023-08-12T00:49:03.958Z,174.00
2023-08-12T00:49:38.654Z,174.00
2023-08-12T00:50:14.955Z,173.00
2023-08-12T00:50:48.281Z,172.00
2023-08-12T00:51:21.560Z,171.67
2023-08-12T00:51:55.163Z,171.00
2023-08-12T00:52:27.937Z,171.00
2023-08-12T00:53:01.065Z,170.67
2023-08-12T00:53:33.603Z,170.00
2023-08-12T00:54:07.667Z,170.00
2023-08-12T00:54:40.380Z,170.00
2023-08-12T00:55:13.233Z,170.00
2023-08-12T00:55:46.265Z,170.00
2023-08-12T00:56:18.952Z,169.67
2023-08-12T00:56:53.115Z,169.00
2023-08-12T00:57:27.102Z,169.00
2023-08-12T00:57:59.858Z,169.00
2023-08-12T00:58:32.467Z,169.00
2023-08-12T00:59:07.072Z,169.67
2023-08-12T00:59:42.618Z,170.00
2023-08-12T01:00:17.127Z,170.33
2023-08-12T01:00:50.424Z,171.00
2023-08-12T01:01:22.998Z,171.00
2023-08-12T01:01:55.718Z,171.67
2023-08-12T01:02:28.304Z,172.00
2023-08-12T01:03:01.822Z,172.00
2023-08-12T01:03:34.606Z,173.00
2023-08-12T01:04:07.204Z,173.00
2023-08-12T01:04:40.096Z,172.00
2023-08-12T01:05:12.701Z,171.33
2023-08-12T01:05:46.025Z,171.00
2023-08-12T01:06:18.715Z,171.00
2023-08-12T01:06:51.232Z,171.00
2023-08-12T01:07:23.784Z,171.00
2023-08-12T01:07:56.964Z,171.00
2023-08-12T01:08:32.666Z,171.00
2023-08-12T01:09:06.747Z,171.00
2023-08-12T01:09:39.478Z,171.00
2023-08-12T01:10:15.571Z,171.00
2023-08-12T01:10:54.244Z,171.67
2023-08-12T01:11:37.620Z,172.00
2023-08-12T01:12:22.220Z,171.00
2023-08-12T01:13:09.314Z,171.00
2023-08-12T01:13:57.089Z,171.00
2023-08-12T01:15:00.217Z,170.00
2023-08-12T01:15:33.063Z,169.00
2023-08-12T01:16:09.254Z,169.00
2023-08-12T01:16:47.501Z,169.00
2023-08-12T01:17:20.359Z,169.00
2023-08-12T01:17:55.237Z,168.33
2023-08-12T01:18:28.923Z,168.00
2023-08-12T01:19:05.745Z,167.00
2023-08-12T01:19:40.269Z,167.00
2023-08-12T01:20:16.085Z,167.00
2023-08-12T01:20:49.233Z,166.00
2023-08-12T01:21:23.507Z,166.00
2023-08-12T01:22:00.498Z,166.00
2023-08-12T01:22:33.661Z,166.00
2023-08-12T01:23:15.868Z,166.00
2023-08-12T01:23:48.736Z,165.33
2023-08-12T01:24:23.393Z,165.00
2023-08-12T01:24:56.496Z,165.00
2023-08-12T01:25:29.074Z,165.00
2023-08-12T01:26:01.635Z,165.00
2023-08-12T01:26:34.188Z,164.33
2023-08-12T01:27:08.242Z,164.00
2023-08-12T01:27:40.778Z,163.33
2023-08-12T01:28:13.306Z,162.67
2023-08-12T01:28:45.859Z,162.00
2023-08-12T01:29:19.736Z,161.00
2023-08-12T01:29:53.608Z,160.33
2023-08-12T01:30:26.161Z,159.67
2023-08-12T01:31:09.167Z,159.00
2023-08-12T01:31:51.396Z,157.67
2023-08-12T01:32:29.972Z,155.67
2023-08-12T01:33:16.039Z,154.33
2023-08-12T01:33:57.745Z,153.00
2023-08-12T01:34:47.026Z,151.33
2023-08-12T01:35:27.313Z,149.67
2023-08-12T01:36:14.304Z,148.33
2023-08-12T01:36:55.800Z,147.33
2023-08-12T01:37:33.361Z,147.00
2023-08-12T01:38:07.658Z,147.00
2023-08-12T01:38:41.996Z,147.00
2023-08-12T01:39:14.859Z,148.00
2023-08-12T01:39:49.469Z,148.00
2023-08-12T01:40:23.055Z,147.33
2023-08-12T01:40:56.165Z,147.00
2023-08-12T01:41:29.233Z,147.00
2023-08-12T01:42:02.382Z,146.67
2023-08-12T01:42:35.990Z,146.00
2023-08-12T01:43:09.460Z,146.00
2023-08-12T01:43:42.819Z,146.00
2023-08-12T01:44:15.664Z,146.00
2023-08-12T01:44:49.429Z,146.00
2023-08-12T01:45:22.141Z,146.00
2023-08-12T01:45:55.060Z,146.00
2023-08-12T01:46:27.737Z,146.00
2023-08-12T01:47:01.367Z,145.00
2023-08-12T01:47:33.969Z,144.67
2023-08-12T01:48:07.204Z,144.00
2023-08-12T01:48:39.750Z,144.00
2023-08-12T01:49:12.307Z,144.00
2023-08-12T01:49:44.849Z,143.00
2023-08-12T01:50:17.593Z,143.00
2023-08-12T01:50:50.166Z,143.00
2023-08-12T01:51:22.848Z,143.00
2023-08-12T01:51:55.348Z,142.00
2023-08-12T01:52:27.856Z,141.67
2023-08-12T01:53:00.404Z,141.00
2023-08-12T01:53:32.895Z,140.00
2023-08-12T01:54:05.607Z,139.00
2023-08-12T01:54:38.133Z,138.00
2023-08-12T01:55:10.743Z,138.00
2023-08-12T01:55:46.217Z,138.00
2023-08-12T01:56:18.764Z,138.00
2023-08-12T01:56:51.267Z,138.00
2023-08-12T01:57:23.807Z,139.00
2023-08-12T01:57:56.375Z,139.00
2023-08-12T01:58:28.947Z,139.00
2023-08-12T01:59:01.512Z,139.00
2023-08-12T01:59:34.102Z,139.00
2023-08-12T02:00:07.543Z,139.00
2023-08-12T02:00:40.134Z,139.00
2023-08-12T02:01:12.717Z,139.00
2023-08-12T02:01:45.323Z,139.00
2023-08-12T02:02:17.879Z,139.00
2023-08-12T02:02:50.427Z,138.67
2023-08-12T02:03:23.085Z,138.00
2023-08-12T02:03:55.859Z,137.67
2023-08-12T02:04:28.867Z,137.00
2023-08-12T02:05:01.459Z,137.00
2023-08-12T02:05:34.552Z,137.00
2023-08-12T02:06:07.095Z,137.00
2023-08-12T02:06:39.609Z,137.00
2023-08-12T02:07:12.345Z,137.00
2023-08-12T02:07:46.216Z,137.00
2023-08-12T02:08:18.809Z,136.67
2023-08-12T02:08:52.048Z,136.00
2023-08-12T02:09:24.645Z,136.00
2023-08-12T02:09:57.343Z,135.00
2023-08-12T02:10:29.884Z,135.00
2023-08-12T02:11:02.395Z,135.00
2023-08-12T02:11:34.898Z,135.00
2023-08-12T02:12:07.911Z,135.00
2023-08-12T02:12:40.438Z,135.00
2023-08-12T02:13:12.953Z,135.00
2023-08-12T02:13:45.499Z,135.00
2023-08-12T02:14:18.260Z,135.00
2023-08-12T02:14:50.801Z,135.00
2023-08-12T02:15:23.374Z,135.00
2023-08-12T02:15:55.918Z,135.00
2023-08-12T02:16:28.477Z,135.00
2023-08-12T02:17:01.219Z,135.00
2023-08-12T02:17:33.800Z,135.00
2023-08-12T02:18:06.492Z,135.00
2023-08-12T02:18:39.012Z,136.00
2023-08-12T02:19:11.592Z,136.00
2023-08-12T02:19:47.276Z,136.33
2023-08-12T02:20:19.834Z,137.00
2023-08-12T02:20:52.383Z,137.00
2023-08-12T02:21:24.951Z,137.00
2023-08-12T02:21:57.655Z,137.00
2023-08-12T02:22:30.581Z,138.00
2023-08-12T02:23:03.206Z,138.00
2023-08-12T02:23:35.933Z,138.00
2023-08-12T02:24:09.292Z,138.00
2023-08-12T02:24:41.800Z,138.00
2023-08-12T02:25:14.332Z,139.00
2023-08-12T02:25:47.976Z,139.00
2023-08-12T02:26:20.508Z,139.00
2023-08-12T02:26:53.054Z,139.00
2023-08-12T02:27:25.626Z,139.00
2023-08-12T02:27:58.160Z,139.00
2023-08-12T02:28:30.707Z,139.00
2023-08-12T02:29:03.303Z,139.00
2023-08-12T02:29:35.849Z,139.00
2023-08-12T02:30:08.812Z,139.00
2023-08-12T02:30:44.288Z,139.00
2023-08-12T02:31:17.344Z,139.67
2023-08-12T02:31:49.867Z,140.00
2023-08-12T02:32:22.439Z,140.00
2023-08-12T02:32:55.031Z,140.00
2023-08-12T02:33:27.655Z,140.00
2023-08-12T02:34:00.251Z,140.00
2023-08-12T02:34:32.817Z,140.00
2023-08-12T02:35:05.588Z,140.00
2023-08-12T02:35:38.156Z,140.00
2023-08-12T02:36:10.986Z,140.00
2023-08-12T02:36:43.520Z,141.00
2023-08-12T02:37:16.132Z,141.00
2023-08-12T02:37:51.965Z,141.00
2023-08-12T02:38:24.494Z,141.00
2023-08-12T02:38:57.028Z,141.00
2023-08-12T02:39:29.597Z,141.00
2023-08-12T02:40:05.763Z,141.00
2023-08-12T02:40:38.334Z,141.00
2023-08-12T02:41:10.850Z,141.00
2023-08-12T02:41:43.502Z,141.00
2023-08-12T02:42:16.034Z,141.00
2023-08-12T02:42:48.543Z,141.00
2023-08-12T02:43:21.048Z,141.00
2023-08-12T02:43:53.666Z,141.00
2023-08-12T02:44:26.164Z,141.00
2023-08-12T02:44:58.806Z,141.00
2023-08-12T02:45:31.334Z,141.00
2023-08-12T02:46:03.975Z,141.00
2023-08-12T02:46:36.547Z,141.00
2023-08-12T02:47:09.273Z,141.00
2023-08-12T02:47:42.078Z,141.00
2023-08-12T02:48:14.777Z,141.00
2023-08-12T02:48:48.701Z,141.00
2023-08-12T02:49:21.381Z,140.33
2023-08-12T02:49:53.923Z,140.00
2023-08-12T02:50:26.491Z,140.00
2023-08-12T02:50:59.008Z,140.00
2023-08-12T02:51:31.546Z,140.00
2023-08-12T02:52:04.183Z,140.00
2023-08-12T02:52:36.857Z,140.00
2023-08-12T02:53:09.454Z,140.00
2023-08-12T02:53:41.943Z,140.00
2023-08-12T02:54:14.500Z,139.67
2023-08-12T02:54:47.038Z,139.00
2023-08-12T02:55:19.639Z,139.00
2023-08-12T02:55:52.149Z,139.00
2023-08-12T02:56:24.644Z,139.00
2023-08-12T02:56:57.143Z,139.00
2023-08-12T02:57:29.669Z,139.00
2023-08-12T02:58:02.965Z,139.00
2023-08-12T02:58:35.718Z,139.00
2023-08-12T02:59:08.318Z,139.00
2023-08-12T02:59:40.861Z,139.00
2023-08-12T03:00:14.154Z,139.00
2023-08-12T03:00:46.723Z,139.00
2023-08-12T03:01:19.321Z,138.33
2023-08-12T03:01:51.829Z,138.00
2023-08-12T03:02:24.387Z,137.00
2023-08-12T03:02:57.416Z,136.33
2023-08-12T03:03:30.039Z,135.00
2023-08-12T03:04:02.613Z,134.00
2023-08-12T03:04:35.281Z,133.67
2023-08-12T03:05:08.322Z,132.33
2023-08-12T03:05:41.970Z,131.33
2023-08-12T03:06:14.550Z,130.00
2023-08-12T03:06:47.043Z,130.00
2023-08-12T03:07:19.587Z,130.00
2023-08-12T03:07:54.978Z,130.00
2023-08-12T03:08:27.464Z,130.33
2023-08-12T03:09:00.172Z,131.00
2023-08-12T03:09:32.689Z,131.33
2023-08-12T03:10:05.766Z,132.67
2023-08-12T03:10:39.965Z,135.00
2023-08-12T03:11:12.496Z,138.00
2023-08-12T03:11:45.187Z,141.67
2023-08-12T03:12:17.733Z,145.33
2023-08-12T03:12:50.241Z,147.67
2023-08-12T03:13:22.742Z,149.67
2023-08-12T03:13:55.282Z,151.00
2023-08-12T03:14:29.440Z,151.00
2023-08-12T03:15:02.983Z,151.67
2023-08-12T03:15:35.540Z,152.67
2023-08-12T03:16:14.369Z,153.67
2023-08-12T03:16:46.896Z,154.00
2023-08-12T03:17:19.411Z,155.00
2023-08-12T03:17:52.005Z,156.00
2023-08-12T03:18:24.548Z,156.00
2023-08-12T03:18:57.247Z,156.00
2023-08-12T03:19:29.792Z,156.00
2023-08-12T03:20:02.599Z,156.00
2023-08-12T03:20:35.201Z,156.00
2023-08-12T03:21:10.949Z,157.00
2023-08-12T03:21:43.506Z,157.00
2023-08-12T03:22:16.023Z,157.00
2023-08-12T03:22:48.525Z,157.00
2023-08-12T03:23:21.070Z,157.00
2023-08-12T03:23:53.650Z,157.00
2023-08-12T03:24:26.173Z,157.33
2023-08-12T03:24:58.742Z,159.00
2023-08-12T03:25:31.334Z,161.67
2023-08-12T03:26:04.048Z,162.00
2023-08-12T03:26:36.548Z,162.00
2023-08-12T03:27:09.187Z,162.00
2023-08-12T03:27:42.208Z,162.00
2023-08-12T03:28:14.855Z,162.00
2023-08-12T03:28:47.370Z,161.67
2023-08-12T03:29:19.931Z,161.00
2023-08-12T03:29:52.573Z,161.00
2023-08-12T03:30:25.137Z,161.00
2023-08-12T03:30:58.257Z,161.00
2023-08-12T03:31:30.805Z,161.00
2023-08-12T03:32:03.721Z,160.67
2023-08-12T03:32:36.636Z,160.00
2023-08-12T03:33:09.248Z,160.00
2023-08-12T03:33:41.832Z,160.00
2023-08-12T03:34:14.346Z,159.67
2023-08-12T03:34:46.887Z,159.00
2023-08-12T03:35:20.371Z,158.67
2023-08-12T03:35:52.979Z,158.00
2023-08-12T03:36:25.539Z,158.00
2023-08-12T03:36:58.082Z,157.33
2023-08-12T03:37:30.579Z,157.00
2023-08-12T03:38:03.072Z,157.00
2023-08-12T03:38:37.113Z,157.00
2023-08-12T03:39:09.733Z,157.00
2023-08-12T03:39:42.265Z,157.00
2023-08-12T03:40:14.774Z,157.00
2023-08-12T03:40:47.317Z,157.00
2023-08-12T03:41:19.827Z,157.00
2023-08-12T03:41:52.375Z,157.00
2023-08-12T03:42:25.359Z,157.00
2023-08-12T03:42:57.894Z,157.00
2023-08-12T03:43:30.450Z,157.00
2023-08-12T03:44:02.959Z,157.00
2023-08-12T03:44:35.465Z,157.00
2023-08-12T03:45:08.418Z,156.67
2023-08-12T03:45:42.568Z,156.00
2023-08-12T03:46:15.068Z,156.00
2023-08-12T03:46:47.651Z,155.33
2023-08-12T03:47:23.170Z,155.00
2023-08-12T03:47:55.758Z,155.00
2023-08-12T03:48:28.346Z,155.00
2023-08-12T03:49:00.883Z,155.00
2023-08-12T03:49:33.466Z,155.00
2023-08-12T03:50:07.480Z,155.67
2023-08-12T03:50:42.490Z,156.00
2023-08-12T03:51:15.038Z,156.00
2023-08-12T03:51:47.532Z,155.33
2023-08-12T03:52:20.053Z,155.00
2023-08-12T03:52:52.600Z,155.00
2023-08-12T03:53:25.147Z,155.00
2023-08-12T03:53:58.342Z,155.00
2023-08-12T03:54:30.893Z,155.00
2023-08-12T03:55:03.548Z,155.00
2023-08-12T03:55:36.125Z,154.33
2023-08-12T03:56:08.677Z,154.00
2023-08-12T03:56:41.197Z,154.00
2023-08-12T03:57:13.950Z,154.00
2023-08-12T03:57:46.787Z,154.00
2023-08-12T03:58:19.360Z,154.00
2023-08-12T03:58:52.571Z,154.00
2023-08-12T03:59:25.093Z,154.67
2023-08-12T03:59:57.597Z,155.00
2023-08-12T04:00:30.093Z,155.00
2023-08-12T04:01:02.677Z,155.00
2023-08-12T04:01:35.242Z,155.00
2023-08-12T04:02:07.750Z,155.00
2023-08-12T04:02:40.339Z,155.00
2023-08-12T04:03:12.971Z,155.00
2023-08-12T04:03:45.575Z,155.00
2023-08-12T04:04:18.085Z,155.00
2023-08-12T04:04:50.614Z,155.67
2023-08-12T04:05:23.295Z,158.00
2023-08-12T04:05:55.807Z,160.67
2023-08-12T04:06:28.345Z,162.67
2023-08-12T04:07:01.449Z,164.00
2023-08-12T04:07:34.024Z,164.00
2023-08-12T04:08:06.644Z,164.00
2023-08-12T04:08:39.145Z,163.33
2023-08-12T04:09:11.732Z,163.00
2023-08-12T04:09:44.291Z,163.00
2023-08-12T04:10:16.831Z,162.00
2023-08-12T04:10:52.214Z,162.00
2023-08-12T04:11:24.726Z,162.00
2023-08-12T04:11:57.583Z,161.33
2023-08-12T04:12:30.104Z,161.00
2023-08-12T04:13:02.608Z,161.00
2023-08-12T04:13:35.124Z,161.33
2023-08-12T04:14:07.667Z,162.33
2023-08-12T04:14:42.208Z,163.67
2023-08-12T04:15:14.857Z,164.67
2023-08-12T04:15:52.194Z,165.00
2023-08-12T04:16:25.019Z,166.00
2023-08-12T04:16:57.629Z,166.00
2023-08-12T04:17:30.218Z,165.33
2023-08-12T04:18:02.820Z,165.00
2023-08-12T04:18:35.359Z,165.00
2023-08-12T04:19:07.905Z,164.33
2023-08-12T04:19:40.430Z,164.00
2023-08-12T04:20:13.353Z,164.00
2023-08-12T04:20:51.102Z,164.00
2023-08-12T04:21:23.648Z,163.67
2023-08-12T04:21:56.142Z,163.00
2023-08-12T04:22:29.173Z,163.00
2023-08-12T04:23:01.707Z,163.67
2023-08-12T04:23:34.350Z,163.33
2023-08-12T04:24:07.399Z,163.00
2023-08-12T04:24:39.930Z,163.00
2023-08-12T04:25:12.489Z,163.00
2023-08-12T04:25:46.318Z,164.00
2023-08-12T04:26:18.839Z,164.67
2023-08-12T04:26:51.373Z,166.00
2023-08-12T04:27:23.905Z,167.33
2023-08-12T04:27:56.410Z,168.00
2023-08-12T04:28:28.910Z,168.67
2023-08-12T04:29:01.445Z,168.00
2023-08-12T04:29:33.974Z,168.00
2023-08-12T04:30:07.368Z,168.00
2023-08-12T04:30:49.582Z,168.00
2023-08-12T04:31:22.371Z,168.00
2023-08-12T04:31:54.967Z,168.00
2023-08-12T04:32:27.480Z,168.00
2023-08-12T04:33:00.050Z,168.00
2023-08-12T04:33:32.651Z,168.00
2023-08-12T04:34:05.262Z,168.00
2023-08-12T04:34:37.809Z,168.00
2023-08-12T04:35:10.395Z,168.00
2023-08-12T04:35:43.314Z,168.00
2023-08-12T04:36:15.896Z,168.00
2023-08-12T04:36:48.411Z,168.00
2023-08-12T04:37:20.921Z,168.00
2023-08-12T04:37:53.438Z,168.33
2023-08-12T04:38:26.827Z,169.00
2023-08-12T04:38:59.392Z,169.00
2023-08-12T04:39:34.197Z,169.00
2023-08-12T04:40:08.497Z,169.00
2023-08-12T04:40:41.870Z,169.00
2023-08-12T04:41:14.577Z,169.00
2023-08-12T04:41:47.719Z,169.00
2023-08-12T04:42:20.237Z,169.00
2023-08-12T04:42:52.903Z,169.00
2023-08-12T04:43:25.753Z,169.00
2023-08-12T04:43:58.263Z,169.00
2023-08-12T04:44:30.822Z,169.00
2023-08-12T04:45:04.695Z,169.00
2023-08-12T04:45:37.343Z,169.00
2023-08-12T04:46:09.942Z,169.00
2023-08-12T04:46:42.480Z,168.00
2023-08-12T04:47:15.046Z,168.67
2023-08-12T04:47:47.621Z,169.00
2023-08-12T04:48:20.180Z,169.00
2023-08-12T04:48:52.934Z,169.00
2023-08-12T04:49:26.915Z,169.00
2023-08-12T04:49:59.434Z,169.00
2023-08-12T04:50:32.478Z,169.00
2023-08-12T04:51:06.304Z,169.00
2023-08-12T04:51:39.576Z,169.00
2023-08-12T04:52:12.142Z,169.00
2023-08-12T04:52:44.701Z,169.00
2023-08-12T04:53:17.249Z,169.00
2023-08-12T04:53:49.826Z,169.00
2023-08-12T04:54:22.393Z,169.00
2023-08-12T04:54:55.388Z,169.00
2023-08-12T04:55:28.695Z,169.00
2023-08-12T04:56:01.250Z,169.00
2023-08-12T04:56:33.787Z,169.00
2023-08-12T04:57:06.813Z,169.00
2023-08-12T04:57:39.367Z,168.00
2023-08-12T04:58:12.042Z,165.00
2023-08-12T04:58:44.539Z,162.00
2023-08-12T04:59:17.071Z,159.67
2023-08-12T04:59:49.631Z,159.67
2023-08-12T05:00:23.251Z,160.00
2023-08-12T05:00:55.839Z,161.00
2023-08-12T05:01:28.434Z,161.00
2023-08-12T05:02:05.151Z,161.00
2023-08-12T05:02:38.269Z,161.67
2023-08-12T05:03:10.913Z,161.67
2023-08-12T05:03:43.503Z,160.33
2023-08-12T05:04:16.559Z,160.33
2023-08-12T05:04:52.756Z,161.00
2023-08-12T05:05:27.229Z,161.00
2023-08-12T05:05:59.816Z,161.00
2023-08-12T05:06:32.298Z,160.33
2023-08-12T05:07:04.818Z,151.00
2023-08-12T05:07:40.017Z,137.33
2023-08-12T05:08:13.645Z,127.00
2023-08-12T05:08:46.204Z,123.33
2023-08-12T05:09:18.731Z,122.67
2023-08-12T05:09:51.290Z,121.00
2023-08-12T05:10:24.065Z,118.33
2023-08-12T05:10:56.553Z,116.00
2023-08-12T05:11:29.032Z,117.33
2023-08-12T05:12:01.526Z,118.67
2023-08-12T05:12:34.039Z,119.33
2023-08-12T05:13:06.818Z,122.67
2023-08-12T05:13:39.328Z,122.00
2023-08-12T05:14:11.860Z,123.00
2023-08-12T05:14:44.399Z,125.67
2023-08-12T05:15:17.164Z,123.00
2023-08-12T05:15:49.720Z,107.00
2023-08-12T05:16:22.278Z,92.33
2023-08-12T05:16:54.816Z,86.00
2023-08-12T05:17:27.400Z,84.33
2023-08-12T05:17:59.935Z,82.00
2023-08-12T05:18:32.480Z,78.00
2023-08-12T05:19:05.114Z,76.00
2023-08-12T05:19:37.628Z,75.67
2023-08-12T05:20:10.562Z,72.33
2023-08-12T05:20:46.474Z,71.00
2023-08-12T05:21:19.796Z,70.00
2023-08-12T05:21:52.285Z,70.33
2023-08-12T05:22:24.808Z,71.33
2023-08-12T05:22:57.335Z,74.00
2023-08-12T05:23:29.819Z,74.00
2023-08-12T05:24:02.357Z,73.67
2023-08-12T05:24:34.879Z,74.00
2023-08-12T05:25:08.239Z,75.33
2023-08-12T05:25:42.062Z,76.33
2023-08-12T05:26:14.647Z,77.00
2023-08-12T05:26:48.357Z,77.00
2023-08-12T05:27:20.847Z,77.00
2023-08-12T05:27:53.323Z,77.00
2023-08-12T05:28:25.827Z,77.00
2023-08-12T05:28:58.355Z,76.33
2023-08-12T05:29:31.216Z,73.33
2023-08-12T05:30:03.930Z,68.00
2023-08-12T05:30:36.845Z,65.00
2023-08-12T05:31:09.374Z,65.00
2023-08-12T05:31:42.107Z,63.00
2023-08-12T05:32:14.868Z,62.00
2023-08-12T05:32:47.630Z,60.67
2023-08-12T05:33:20.281Z,60.33
2023-08-12T05:33:53.321Z,61.33
2023-08-12T05:34:25.890Z,62.00
2023-08-12T05:34:58.397Z,59.33
2023-08-12T05:35:34.657Z,56.00
2023-08-12T05:36:07.200Z,52.67
2023-08-12T05:36:39.754Z,50.33
2023-08-12T05:37:12.547Z,48.33
2023-08-12T05:37:45.064Z,48.00
2023-08-12T05:38:17.758Z,49.33
2023-08-12T05:38:50.283Z,50.33
2023-08-12T05:39:22.811Z,49.33
2023-08-12T05:39:55.354Z,47.67
2023-08-12T05:40:28.267Z,46.33
2023-08-12T05:41:05.234Z,46.00
2023-08-12T05:41:37.824Z,45.67
2023-08-12T05:42:10.675Z,44.33
2023-08-12T05:42:46.145Z,42.67
2023-08-12T05:43:18.665Z,42.00
2023-08-12T05:44:00.525Z,42.33
2023-08-12T05:44:33.088Z,43.00
2023-08-12T05:45:08.143Z,42.67
2023-08-12T05:45:41.281Z,41.67
2023-08-12T05:46:13.916Z,41.00
2023-08-12T05:46:51.552Z,41.00
2023-08-12T05:47:24.048Z,40.33
2023-08-12T05:47:56.562Z,40.00
2023-08-12T05:48:29.559Z,40.00
2023-08-12T05:49:02.093Z,40.00
2023-08-12T05:49:34.610Z,40.33
2023-08-12T05:50:07.635Z,41.00
2023-08-12T05:50:40.137Z,41.00
2023-08-12T05:51:12.682Z,41.67
2023-08-12T05:51:45.224Z,42.00
2023-08-12T05:52:37.805Z,42.00
2023-08-12T05:53:10.630Z,43.00
2023-08-12T05:53:43.172Z,42.00
2023-08-12T05:54:15.795Z,42.00
2023-08-12T05:54:48.312Z,42.00
2023-08-12T05:55:20.837Z,42.33
2023-08-12T05:55:53.346Z,43.00
2023-08-12T05:56:26.101Z,43.00
2023-08-12T05:56:59.514Z,43.00
2023-08-12T05:57:32.052Z,43.33
2023-08-12T05:58:05.870Z,44.00
2023-08-12T05:58:38.378Z,44.00
2023-08-12T05:59:10.905Z,44.67
2023-08-12T05:59:43.396Z,45.00
2023-08-12T06:00:18.029Z,45.00
2023-08-12T06:00:51.375Z,46.00
2023-08-12T06:01:23.915Z,46.67
2023-08-12T06:01:56.457Z,47.00
2023-08-12T06:02:28.954Z,47.00
2023-08-12T06:03:01.578Z,47.00
2023-08-12T06:03:34.130Z,46.33
2023-08-12T06:04:09.129Z,46.33
2023-08-12T06:04:41.691Z,47.33
2023-08-12T06:05:14.185Z,48.33
2023-08-12T06:05:48.028Z,49.67
2023-08-12T06:06:20.544Z,51.00
2023-08-12T06:06:53.106Z,51.33
2023-08-12T06:07:25.636Z,52.00
2023-08-12T06:07:58.173Z,52.00
2023-08-12T06:08:30.686Z,52.00
2023-08-12T06:09:03.241Z,52.00
2023-08-12T06:09:35.727Z,52.33
2023-08-12T06:10:08.382Z,53.33
2023-08-12T06:10:41.022Z,54.00
2023-08-12T06:11:13.511Z,55.00
2023-08-12T06:11:46.148Z,55.33
2023-08-12T06:12:18.658Z,56.00
2023-08-12T06:12:51.192Z,56.00
2023-08-12T06:13:23.717Z,56.00
2023-08-12T06:13:56.243Z,56.00
2023-08-12T06:14:29.391Z,56.00
2023-08-12T06:15:02.442Z,56.00
2023-08-12T06:15:34.973Z,56.00
2023-08-12T06:16:07.696Z,55.33
2023-08-12T06:16:40.324Z,53.00
2023-08-12T06:17:12.823Z,50.00
2023-08-12T06:17:45.355Z,47.00
2023-08-12T06:18:17.921Z,44.67
2023-08-12T06:18:50.460Z,43.33
2023-08-12T06:19:22.999Z,43.00
2023-08-12T06:19:55.572Z,43.67
2023-08-12T06:20:28.124Z,44.33
2023-08-12T06:21:00.656Z,45.00
2023-08-12T06:21:33.156Z,46.00
2023-08-12T06:22:05.701Z,45.67
2023-08-12T06:22:38.482Z,44.00
2023-08-12T06:23:10.978Z,41.00
2023-08-12T06:23:44.125Z,38.33
2023-08-12T06:24:16.659Z,36.67
2023-08-12T06:24:49.199Z,36.00
2023-08-12T06:25:21.732Z,36.00
2023-08-12T06:25:54.263Z,36.00
2023-08-12T06:26:26.785Z,36.00
2023-08-12T06:26:59.326Z,36.00
2023-08-12T06:27:31.855Z,37.00
2023-08-12T06:28:05.737Z,39.00
2023-08-12T06:28:38.239Z,41.67
2023-08-12T06:29:10.756Z,42.00
2023-08-12T06:29:43.263Z,41.67
2023-08-12T06:30:15.970Z,39.33
2023-08-12T06:30:49.423Z,38.00
2023-08-12T06:31:21.936Z,36.00
2023-08-12T06:31:54.742Z,33.67
2023-08-12T06:32:27.277Z,31.33
2023-08-12T06:32:59.911Z,30.00
2023-08-12T06:33:32.409Z,29.33
2023-08-12T06:34:05.025Z,28.33
2023-08-12T06:34:37.511Z,28.00
2023-08-12T06:35:10.265Z,28.00
2023-08-12T06:35:43.335Z,28.00
2023-08-12T06:36:15.876Z,28.00
2023-08-12T06:36:48.360Z,28.00
2023-08-12T06:37:20.900Z,27.67
2023-08-12T06:37:53.432Z,28.00
2023-08-12T06:38:25.939Z,28.00
2023-08-12T06:38:58.453Z,28.67
2023-08-12T06:39:31.099Z,29.00
2023-08-12T06:40:04.814Z,29.00
2023-08-12T06:40:39.400Z,29.67
2023-08-12T06:41:11.900Z,30.00
2023-08-12T06:41:44.419Z,30.00
2023-08-12T06:42:16.938Z,30.67
2023-08-12T06:42:49.473Z,31.00
2023-08-12T06:43:21.998Z,31.67
2023-08-12T06:43:54.529Z,32.00
2023-08-12T06:44:27.057Z,33.67
2023-08-12T06:45:01.072Z,35.67
2023-08-12T06:45:33.594Z,36.00
2023-08-12T06:46:06.177Z,36.00
2023-08-12T06:46:38.688Z,36.00
2023-08-12T06:47:11.211Z,36.00
2023-08-12T06:47:43.722Z,36.00
2023-08-12T06:48:16.298Z,36.00
2023-08-12T06:48:48.831Z,36.00
2023-08-12T06:49:21.329Z,36.00
2023-08-12T06:49:54.034Z,36.00
2023-08-12T06:50:26.681Z,36.00
2023-08-12T06:50:59.198Z,36.00
2023-08-12T06:51:31.701Z,36.00
2023-08-12T06:52:04.303Z,36.33
2023-08-12T06:52:37.595Z,37.33
2023-08-12T06:53:10.186Z,38.67
2023-08-12T06:53:44.354Z,41.33
2023-08-12T06:54:16.869Z,48.00
2023-08-12T06:54:49.437Z,57.00
2023-08-12T06:55:21.923Z,61.67
2023-08-12T06:55:54.427Z,68.00
2023-08-12T06:56:26.967Z,78.00
2023-08-12T06:56:59.470Z,76.67
2023-08-12T06:57:32.005Z,67.00
2023-08-12T06:58:04.844Z,63.00
2023-08-12T06:58:37.374Z,61.00